Time;durP1;ratioP1;P1;durP2;ratioP2;P2;SDS_P1;SDS_P2;PMS_P1;PMS_P2;Temp;Humidity;BMP_temperature;BMP_pressure;BME280_temperature;BME280_humidity;BME280_pressure;Samples;Min_cycle;Max_cycle;Signal;HPM_P1;HPM_P2
2023/06/05 00:02:09;;;;;;;4.45;2.80;;;;;;;;;;5043019;28;20461;-50
2023/06/05 00:04:36;;;;;;;9.88;3.63;;;;;;;;;;5042970;28;20021;-55
2023/06/05 00:07:01;;;;;;;10.70;3.50;;;;;;;;;;5043223;28;20106;-54
2023/06/05 00:09:26;;;;;;;9.13;3.50;;;;;;;;;;5043432;28;20042;-59
2023/06/05 00:11:52;;;;;;;8.40;3.40;;;;;;;;;;5043378;28;20049;-52
2023/06/05 00:14:17;;;;;;;8.95;3.22;;;;;;;;;;5045291;28;20703;-49
2023/06/05 00:16:42;;;;;;;5.80;3.75;;;;;;;;;;5045000;28;20033;-53
2023/06/05 00:19:08;;;;;;;8.07;3.53;;;;;;;;;;5045316;28;20515;-59
2023/06/05 00:21:33;;;;;;;11.80;3.30;;;;;;;;;;5044991;28;20019;-52
2023/06/05 00:23:58;;;;;;;6.13;3.40;;;;;;;;;;5045761;28;20049;-57
2023/06/05 00:26:24;;;;;;;6.95;3.40;;;;;;;;;;5046030;28;20060;-52
2023/06/05 00:28:49;;;;;;;5.60;3.42;;;;;;;;;;5046165;28;20743;-56
2023/06/05 00:31:17;;;;;;;5.35;3.63;;;;;;;;;;5047159;28;20480;-53
2023/06/05 00:33:42;;;;;;;6.65;3.63;;;;;;;;;;5047378;28;20044;-52
2023/06/05 00:36:07;;;;;;;6.05;4.00;;;;;;;;;;5047295;28;20044;-56
2023/06/05 00:38:33;;;;;;;8.18;3.92;;;;;;;;;;5045037;28;20124;-53
2023/06/05 00:40:58;;;;;;;3.80;2.80;;;;;;;;;;5047380;28;20461;-50
2023/06/05 00:43:23;;;;;;;6.63;3.42;;;;;;;;;;5046553;28;20173;-57
2023/06/05 00:45:52;;;;;;;6.20;3.20;;;;;;;;;;5047064;28;20550;-55
2023/06/05 00:48:17;;;;;;;6.57;3.58;;;;;;;;;;5043401;28;20032;-54
2023/06/05 00:50:43;;;;;;;6.88;3.85;;;;;;;;;;5042414;28;20037;-58
2023/06/05 00:53:08;;;;;;;6.85;3.58;;;;;;;;;;5042709;28;20388;-57
2023/06/05 00:55:34;;;;;;;9.88;3.58;;;;;;;;;;5042584;28;20467;-56
2023/06/05 00:58:00;;;;;;;5.00;3.13;;;;;;;;;;5042635;28;20362;-54
2023/06/05 01:00:26;;;;;;;6.78;3.63;;;;;;;;;;5040162;28;20127;-59
2023/06/05 01:02:53;;;;;;;5.10;2.83;;;;;;;;;;5042575;28;20481;-58
2023/06/05 01:05:18;;;;;;;9.27;3.67;;;;;;;;;;5042311;28;20053;-50
2023/06/05 01:07:43;;;;;;;8.63;4.05;;;;;;;;;;5042754;28;20048;-57
2023/06/05 01:10:09;;;;;;;7.97;3.47;;;;;;;;;;5044490;28;20313;-52
2023/06/05 01:12:41;;;;;;;7.55;3.22;;;;;;;;;;5044076;28;20020;-55
2023/06/05 01:15:07;;;;;;;9.85;3.38;;;;;;;;;;5043931;28;20102;-54
2023/06/05 01:17:33;;;;;;;7.03;3.53;;;;;;;;;;5044570;28;20148;-56
2023/06/05 01:20:00;;;;;;;7.72;3.67;;;;;;;;;;5045842;28;20281;-54
2023/06/05 01:22:25;;;;;;;6.68;3.72;;;;;;;;;;5043094;28;20027;-54
2023/06/05 01:24:52;;;;;;;7.20;3.50;;;;;;;;;;5044346;28;20056;-53
2023/06/05 01:27:29;;;;;;;10.52;3.67;;;;;;;;;;5046305;28;20048;-54
2023/06/05 01:29:58;;;;;;;5.43;3.40;;;;;;;;;;5044614;28;20040;-58
2023/06/05 01:32:56;;;;;;;6.95;3.60;;;;;;;;;;5042407;28;20381;-58
2023/06/05 01:35:27;;;;;;;8.88;4.00;;;;;;;;;;4999944;28;20026;-50
2023/06/05 01:37:54;;;;;;;7.15;3.70;;;;;;;;;;5000004;28;20065;-59
2023/06/05 01:40:21;;;;;;;6.40;3.60;;;;;;;;;;4999964;28;20428;-53
2023/06/05 01:42:47;;;;;;;7.95;3.72;;;;;;;;;;5000146;28;20327;-58
2023/06/05 01:45:13;;;;;;;8.40;3.95;;;;;;;;;;4999842;28;20253;-57
2023/06/05 01:47:39;;;;;;;5.97;4.13;;;;;;;;;;4983083;28;20045;-53
2023/06/05 01:50:05;;;;;;;9.60;4.32;;;;;;;;;;5000157;28;20378;-58
2023/06/05 01:52:31;;;;;;;8.70;3.60;;;;;;;;;;5000083;28;20030;-55
2023/06/05 01:54:59;;;;;;;6.25;4.28;;;;;;;;;;4999869;28;20041;-54
2023/06/05 01:57:26;;;;;;;13.05;4.03;;;;;;;;;;4999437;28;20069;-52
2023/06/05 01:59:53;;;;;;;7.68;4.40;;;;;;;;;;4999540;28;20038;-58
2023/06/05 02:02:19;;;;;;;5.05;3.33;;;;;;;;;;5002413;28;20065;-54
2023/06/05 02:04:47;;;;;;;5.93;3.97;;;;;;;;;;5003652;28;20068;-52
2023/06/05 02:07:14;;;;;;;6.35;4.10;;;;;;;;;;5003312;28;20417;-57
2023/06/05 02:09:40;;;;;;;9.65;4.10;;;;;;;;;;5003215;28;20584;-58
2023/06/05 02:12:05;;;;;;;9.10;3.83;;;;;;;;;;5044234;28;20029;-54
2023/06/05 02:14:32;;;;;;;5.72;4.13;;;;;;;;;;5060052;28;20036;-53
2023/06/05 02:16:58;;;;;;;8.38;3.97;;;;;;;;;;5045440;28;20017;-56
2023/06/05 02:19:23;;;;;;;10.93;4.38;;;;;;;;;;5045156;28;20028;-52
2023/06/05 02:21:48;;;;;;;11.77;4.05;;;;;;;;;;5046548;28;20017;-57
2023/06/05 02:24:14;;;;;;;11.93;4.32;;;;;;;;;;5044619;28;20489;-59
2023/06/05 02:26:40;;;;;;;5.00;3.45;;;;;;;;;;5045220;28;20385;-54
2023/06/05 02:29:05;;;;;;;7.20;3.35;;;;;;;;;;5045246;28;20032;-54
2023/06/05 02:31:30;;;;;;;7.05;3.78;;;;;;;;;;5045118;28;20114;-54
2023/06/05 02:33:56;;;;;;;5.35;3.47;;;;;;;;;;5042804;28;20033;-59
2023/06/05 02:36:22;;;;;;;6.47;3.50;;;;;;;;;;5044872;28;20536;-49
2023/06/05 02:38:49;;;;;;;6.00;3.67;;;;;;;;;;5044954;28;20020;-50
2023/06/05 02:41:15;;;;;;;5.53;3.50;;;;;;;;;;5044816;28;20025;-58
2023/06/05 02:43:40;;;;;;;6.90;4.00;;;;;;;;;;5044911;28;20047;-58
2023/06/05 02:46:06;;;;;;;6.20;3.40;;;;;;;;;;5044854;28;20438;-59
2023/06/05 02:48:31;;;;;;;7.90;3.20;;;;;;;;;;5044326;28;20242;-58
2023/06/05 02:50:56;;;;;;;6.93;4.25;;;;;;;;;;5043616;28;20009;-60
2023/06/05 02:53:22;;;;;;;5.70;3.47;;;;;;;;;;5044479;28;20372;-53
2023/06/05 02:55:47;;;;;;;5.45;3.20;;;;;;;;;;5044433;28;20285;-53
2023/06/05 02:58:13;;;;;;;8.48;3.60;;;;;;;;;;5044131;28;20045;-60
2023/06/05 03:00:38;;;;;;;14.13;4.28;;;;;;;;;;5044496;28;20401;-51
2023/06/05 03:03:06;;;;;;;10.38;4.13;;;;;;;;;;5041737;28;20025;-56
2023/06/05 03:05:31;;;;;;;16.75;4.45;;;;;;;;;;5044122;28;20116;-55
2023/06/05 03:07:57;;;;;;;13.20;4.22;;;;;;;;;;5041786;28;20124;-60
2023/06/05 03:10:22;;;;;;;8.50;4.00;;;;;;;;;;5044539;28;20071;-54
2023/06/05 03:12:47;;;;;;;9.98;4.40;;;;;;;;;;5044024;28;20120;-55
2023/06/05 03:15:13;;;;;;;10.43;3.97;;;;;;;;;;5044246;28;20475;-59
2023/06/05 03:17:38;;;;;;;10.82;4.45;;;;;;;;;;5044385;28;20247;-59
2023/06/05 03:20:04;;;;;;;5.47;4.03;;;;;;;;;;5044052;28;20059;-56
2023/06/05 03:22:30;;;;;;;9.07;4.10;;;;;;;;;;5044176;28;20370;-58
2023/06/05 03:24:55;;;;;;;10.88;4.60;;;;;;;;;;5044012;28;20126;-58
2023/06/05 03:27:20;;;;;;;7.88;4.07;;;;;;;;;;5044111;28;20025;-58
2023/06/05 03:29:46;;;;;;;7.35;4.70;;;;;;;;;;5043917;28;20143;-56
2023/06/05 03:32:11;;;;;;;8.15;4.10;;;;;;;;;;5044137;28;20384;-52
2023/06/05 03:34:36;;;;;;;6.95;4.15;;;;;;;;;;5043639;28;20354;-59
2023/06/05 03:37:03;;;;;;;5.15;3.92;;;;;;;;;;5044024;28;20029;-54
2023/06/05 03:39:28;;;;;;;8.00;4.15;;;;;;;;;;5043659;28;20083;-53
2023/06/05 03:41:54;;;;;;;7.03;3.92;;;;;;;;;;5043885;28;20021;-57
2023/06/05 03:44:20;;;;;;;6.97;4.20;;;;;;;;;;5044005;28;20056;-52
2023/06/05 03:46:45;;;;;;;7.18;4.35;;;;;;;;;;5043882;28;20432;-51
2023/06/05 03:49:12;;;;;;;11.13;4.20;;;;;;;;;;5043622;28;20029;-54
2023/06/05 03:51:37;;;;;;;7.68;4.50;;;;;;;;;;5043844;28;20032;-52
2023/06/05 03:54:03;;;;;;;13.88;4.07;;;;;;;;;;5043564;28;20204;-57
2023/06/05 03:56:33;;;;;;;7.45;3.50;;;;;;;;;;5043199;28;20044;-55
2023/06/05 03:59:08;;;;;;;8.23;4.47;;;;;;;;;;5043221;28;20036;-53
2023/06/05 04:01:34;;;;;;;9.25;4.22;;;;;;;;;;5043767;28;20017;-57
2023/06/05 04:04:00;;;;;;;4.28;3.13;;;;;;;;;;5043631;28;20029;-60
2023/06/05 04:06:26;;;;;;;7.47;3.53;;;;;;;;;;5043780;28;20166;-53
2023/06/05 04:08:52;;;;;;;9.38;3.50;;;;;;;;;;5043574;28;20383;-57
2023/06/05 04:11:17;;;;;;;5.65;3.83;;;;;;;;;;5043274;28;20021;-49
2023/06/05 04:13:43;;;;;;;8.27;4.22;;;;;;;;;;5043469;28;20023;-54
2023/06/05 04:16:09;;;;;;;11.45;4.35;;;;;;;;;;5043053;28;20048;-49
2023/06/05 04:18:34;;;;;;;10.23;3.78;;;;;;;;;;5043481;28;20107;-53
2023/06/05 04:21:00;;;;;;;13.60;4.38;;;;;;;;;;5043566;28;20024;-55
2023/06/05 04:23:25;;;;;;;7.68;4.40;;;;;;;;;;5042433;28;20392;-50
2023/06/05 04:25:54;;;;;;;7.20;4.18;;;;;;;;;;5043175;28;20029;-58
2023/06/05 04:28:19;;;;;;;10.23;5.97;;;;;;;;;;5040802;28;20056;-52
2023/06/05 04:30:45;;;;;;;12.95;3.85;;;;;;;;;;5043038;28;20013;-53
2023/06/05 04:33:11;;;;;;;9.05;3.85;;;;;;;;;;5042816;28;20065;-60
2023/06/05 04:35:36;;;;;;;9.77;4.55;;;;;;;;;;5043386;28;20057;-50
2023/06/05 04:38:02;;;;;;;9.40;3.97;;;;;;;;;;5043154;28;20358;-54
2023/06/05 04:40:28;;;;;;;8.68;4.38;;;;;;;;;;5043342;28;20052;-56
2023/06/05 04:42:54;;;;;;;18.42;4.75;;;;;;;;;;5043166;28;20288;-59
2023/06/05 04:45:20;;;;;;;8.63;4.95;;;;;;;;;;5043123;28;20385;-55
2023/06/05 04:47:46;;;;;;;11.48;4.43;;;;;;;;;;5042666;28;20116;-55
2023/06/05 04:50:21;;;;;;;17.58;4.05;;;;;;;;;;5042807;28;20111;-48
2023/06/05 04:52:47;;;;;;;19.33;3.60;;;;;;;;;;5043042;28;20034;-60
2023/06/05 04:55:12;;;;;;;5.57;3.33;;;;;;;;;;5042949;28;20028;-57
2023/06/05 04:57:37;;;;;;;19.50;4.43;;;;;;;;;;5042606;28;20568;-49
2023/06/05 05:00:07;;;;;;;12.98;3.50;;;;;;;;;;5042895;28;20104;-58
2023/06/05 05:02:33;;;;;;;8.40;3.63;;;;;;;;;;5042911;28;20024;-54
2023/06/05 05:04:58;;;;;;;9.90;3.63;;;;;;;;;;5042754;28;20029;-51
2023/06/05 05:07:26;;;;;;;8.48;4.00;;;;;;;;;;5042653;28;20029;-58
2023/06/05 05:09:51;;;;;;;9.50;4.00;;;;;;;;;;5042675;28;20016;-49
2023/06/05 05:12:16;;;;;;;5.40;3.60;;;;;;;;;;5042509;28;20017;-57
2023/06/05 05:14:42;;;;;;;9.10;3.25;;;;;;;;;;5041384;28;20132;-54
2023/06/05 05:17:08;;;;;;;9.65;3.80;;;;;;;;;;5042473;28;20095;-60
2023/06/05 05:19:33;;;;;;;10.25;3.45;;;;;;;;;;5042749;28;20078;-56
2023/06/05 05:21:58;;;;;;;16.95;4.50;;;;;;;;;;5042655;28;20017;-55
2023/06/05 05:24:24;;;;;;;8.90;3.42;;;;;;;;;;5041996;28;20072;-59
2023/06/05 05:26:50;;;;;;;9.45;2.72;;;;;;;;;;5042395;28;20408;-59
2023/06/05 05:29:16;;;;;;;10.88;3.50;;;;;;;;;;5042242;28;20110;-60
2023/06/05 05:31:41;;;;;;;11.43;4.00;;;;;;;;;;5040872;28;20580;-50
2023/06/05 05:34:06;;;;;;;7.28;3.40;;;;;;;;;;5042263;28;20028;-56
2023/06/05 05:36:36;;;;;;;16.25;3.10;;;;;;;;;;5045610;28;20028;-60
2023/06/05 05:39:01;;;;;;;6.05;3.58;;;;;;;;;;5043621;28;20037;-53
2023/06/05 05:41:26;;;;;;;8.98;3.40;;;;;;;;;;5046088;28;20032;-55
2023/06/05 05:43:52;;;;;;;8.23;4.00;;;;;;;;;;5026183;28;20071;-54
2023/06/05 05:46:17;;;;;;;11.23;3.70;;;;;;;;;;5026188;28;20482;-48
2023/06/05 05:48:42;;;;;;;11.57;3.63;;;;;;;;;;5026264;28;20373;-56
2023/06/05 05:51:08;;;;;;;5.68;3.40;;;;;;;;;;5025878;28;20322;-58
2023/06/05 05:53:33;;;;;;;15.53;3.63;;;;;;;;;;5026236;28;20017;-55
2023/06/05 05:56:00;;;;;;;10.90;3.83;;;;;;;;;;5025631;28;20247;-57
2023/06/05 05:58:25;;;;;;;13.07;5.00;;;;;;;;;;5025797;28;20450;-55
2023/06/05 06:00:50;;;;;;;11.23;3.63;;;;;;;;;;5026070;28;20110;-51
2023/06/05 06:03:19;;;;;;;5.78;2.88;;;;;;;;;;5022196;28;20045;-58
2023/06/05 06:05:44;;;;;;;7.65;3.80;;;;;;;;;;5018074;28;20037;-52
2023/06/05 06:08:10;;;;;;;10.95;3.53;;;;;;;;;;5034848;28;20040;-59
2023/06/05 06:10:36;;;;;;;5.05;3.38;;;;;;;;;;5045488;28;20437;-49
2023/06/05 06:13:01;;;;;;;9.40;4.40;;;;;;;;;;5041423;28;20108;-55
2023/06/05 06:15:27;;;;;;;6.38;3.10;;;;;;;;;;5027707;28;20021;-57
2023/06/05 06:17:53;;;;;;;8.93;2.70;;;;;;;;;;5024559;28;20028;-58
2023/06/05 06:20:18;;;;;;;5.68;2.55;;;;;;;;;;5021237;28;20026;-54
2023/06/05 06:22:43;;;;;;;9.18;3.97;;;;;;;;;;5020870;28;20021;-51
2023/06/05 06:25:10;;;;;;;7.40;3.50;;;;;;;;;;5018303;28;20049;-56
2023/06/05 06:27:35;;;;;;;4.93;3.00;;;;;;;;;;5022399;28;20032;-54
2023/06/05 06:30:01;;;;;;;8.90;3.67;;;;;;;;;;5025202;28;20029;-53
2023/06/05 06:32:27;;;;;;;7.55;3.30;;;;;;;;;;5025298;28;20500;-55
2023/06/05 06:34:53;;;;;;;6.38;3.47;;;;;;;;;;5022472;28;20029;-51
2023/06/05 06:37:20;;;;;;;5.63;3.45;;;;;;;;;;5025049;28;20022;-53
2023/06/05 06:39:45;;;;;;;5.28;3.10;;;;;;;;;;5023946;28;20052;-52
2023/06/05 06:42:12;;;;;;;15.27;3.63;;;;;;;;;;5025144;28;20418;-57
2023/06/05 06:44:37;;;;;;;8.15;2.92;;;;;;;;;;5016908;28;20081;-49
2023/06/05 06:47:03;;;;;;;6.60;2.50;;;;;;;;;;5024572;28;20461;-59
2023/06/05 06:49:28;;;;;;;9.10;2.90;;;;;;;;;;5026212;28;20547;-55
2023/06/05 06:51:53;;;;;;;9.77;3.70;;;;;;;;;;5020533;28;20389;-54
2023/06/05 06:54:19;;;;;;;5.17;3.10;;;;;;;;;;5024581;28;20484;-59
2023/06/05 06:56:44;;;;;;;15.45;3.28;;;;;;;;;;5020883;28;20362;-59
2023/06/05 06:59:13;;;;;;;19.17;3.42;;;;;;;;;;5020652;28;20028;-57
2023/06/05 07:01:58;;;;;;;11.07;3.45;;;;;;;;;;5023353;28;20035;-50
2023/06/05 07:04:23;;;;;;;10.05;3.15;;;;;;;;;;5016500;28;20038;-52
2023/06/05 07:06:48;;;;;;;6.47;3.13;;;;;;;;;;5005199;28;20405;-58
2023/06/05 07:09:14;;;;;;;15.23;3.60;;;;;;;;;;5016503;28;20354;-56
2023/06/05 07:11:40;;;;;;;6.85;2.85;;;;;;;;;;5024028;28;20727;-51
2023/06/05 07:14:05;;;;;;;9.63;2.95;;;;;;;;;;5023248;28;20047;-58
2023/06/05 07:16:31;;;;;;;13.70;3.17;;;;;;;;;;5019443;28;20018;-57
2023/06/05 07:18:56;;;;;;;6.28;2.92;;;;;;;;;;5020277;28;20212;-49
2023/06/05 07:21:22;;;;;;;7.32;2.47;;;;;;;;;;5021967;28;20103;-56
2023/06/05 07:23:48;;;;;;;5.90;2.53;;;;;;;;;;5012929;28;20464;-54
2023/06/05 07:26:15;;;;;;;5.97;2.65;;;;;;;;;;5023527;28;20044;-57
2023/06/05 07:28:41;;;;;;;6.03;2.35;;;;;;;;;;5027845;28;20087;-61
2023/06/05 07:31:07;;;;;;;3.97;2.50;;;;;;;;;;5025248;28;20440;-52
2023/06/05 07:33:32;;;;;;;4.78;2.47;;;;;;;;;;5018990;28;20170;-52
2023/06/05 07:35:58;;;;;;;3.10;2.08;;;;;;;;;;5017087;28;20062;-50
2023/06/05 07:38:23;;;;;;;8.93;2.17;;;;;;;;;;5016046;28;20034;-55
2023/06/05 07:40:49;;;;;;;16.20;1.90;;;;;;;;;;5041850;28;20395;-58
2023/06/05 07:43:15;;;;;;;14.02;2.17;;;;;;;;;;5020946;28;20278;-53
2023/06/05 07:45:41;;;;;;;11.35;2.28;;;;;;;;;;5020582;28;20361;-57
2023/06/05 07:48:06;;;;;;;15.57;8.50;;;;;;;;;;5022882;28;20025;-53
2023/06/05 07:50:31;;;;;;;9.43;4.37;;;;;;;;;;5016888;28;20281;-49
2023/06/05 07:52:56;;;;;;;13.73;2.50;;;;;;;;;;5016498;28;20282;-55
2023/06/05 07:55:22;;;;;;;6.63;2.30;;;;;;;;;;5018645;28;20275;-59
2023/06/05 07:57:47;;;;;;;7.43;2.13;;;;;;;;;;5015849;28;20014;-59
2023/06/05 08:00:13;;;;;;;9.60;2.60;;;;;;;;;;5019159;28;21011;-52
2023/06/05 08:02:38;;;;;;;9.23;3.00;;;;;;;;;;5011659;28;20084;-52
2023/06/05 08:05:04;;;;;;;5.32;2.63;;;;;;;;;;5011294;28;20029;-46
2023/06/05 08:07:29;;;;;;;9.07;2.25;;;;;;;;;;5011947;28;20029;-60
2023/06/05 08:09:54;;;;;;;3.03;2.00;;;;;;;;;;5008793;28;20371;-51
2023/06/05 08:12:19;;;;;;;5.87;2.40;;;;;;;;;;5024577;28;20259;-60
2023/06/05 08:14:45;;;;;;;10.57;2.58;;;;;;;;;;5024428;28;20810;-54
2023/06/05 08:17:10;;;;;;;3.08;2.22;;;;;;;;;;5024375;28;20042;-53
2023/06/05 08:19:36;;;;;;;3.72;2.13;;;;;;;;;;5009322;28;20017;-60
2023/06/05 08:22:01;;;;;;;7.13;2.43;;;;;;;;;;5032631;28;20041;-58
2023/06/05 08:24:28;;;;;;;5.57;2.47;;;;;;;;;;5016174;28;20053;-49
2023/06/05 08:26:53;;;;;;;5.22;2.50;;;;;;;;;;5016575;28;20045;-52
2023/06/05 08:29:20;;;;;;;5.72;2.47;;;;;;;;;;5020403;28;20045;-58
2023/06/05 08:31:45;;;;;;;6.80;2.60;;;;;;;;;;5025352;28;20044;-56
2023/06/05 08:34:10;;;;;;;6.87;2.40;;;;;;;;;;5037017;28;20029;-57
2023/06/05 08:36:36;;;;;;;3.03;2.08;;;;;;;;;;5033369;28;20257;-57
2023/06/05 08:39:02;;;;;;;4.80;2.17;;;;;;;;;;5032390;28;20037;-55
2023/06/05 08:41:30;;;;;;;6.30;2.60;;;;;;;;;;5037087;28;20021;-61
2023/06/05 08:43:56;;;;;;;5.13;2.45;;;;;;;;;;5025661;28;20056;-61
2023/06/05 08:46:21;;;;;;;8.40;3.17;;;;;;;;;;5036316;28;20068;-54
2023/06/05 08:48:50;;;;;;;11.40;2.58;;;;;;;;;;5019895;28;20279;-60
2023/06/05 08:51:16;;;;;;;5.88;2.78;;;;;;;;;;5033595;28;20370;-57
2023/06/05 08:53:42;;;;;;;7.20;2.40;;;;;;;;;;5024427;28;20032;-54
2023/06/05 08:56:08;;;;;;;6.75;2.50;;;;;;;;;;5042138;28;20509;-53
2023/06/05 08:58:34;;;;;;;6.65;2.45;;;;;;;;;;5028791;28;20104;-63
2023/06/05 09:00:59;;;;;;;7.05;2.28;;;;;;;;;;5013689;28;20403;-54
2023/06/05 09:03:25;;;;;;;8.15;2.80;;;;;;;;;;5023561;28;20087;-63
2023/06/05 09:05:51;;;;;;;6.28;2.20;;;;;;;;;;5014302;28;20028;-59
2023/06/05 09:08:17;;;;;;;4.05;2.15;;;;;;;;;;5037773;28;20029;-62
2023/06/05 09:10:42;;;;;;;5.13;2.33;;;;;;;;;;5017080;28;20096;-54
2023/06/05 09:13:09;;;;;;;3.85;2.63;;;;;;;;;;5031741;28;20028;-62
2023/06/05 09:15:34;;;;;;;4.80;2.28;;;;;;;;;;5024658;28;20556;-52
2023/06/05 09:18:10;;;;;;;5.65;2.58;;;;;;;;;;5016722;28;20038;-57
2023/06/05 09:20:40;;;;;;;4.82;2.28;;;;;;;;;;5022033;28;20087;-57
2023/06/05 09:23:22;;;;;;;2.65;1.90;;;;;;;;;;5019953;28;20127;-53
2023/06/05 09:25:48;;;;;;;5.55;2.72;;;;;;;;;;5028417;28;20049;-56
2023/06/05 09:28:13;;;;;;;6.93;2.30;;;;;;;;;;5030819;28;20022;-56
2023/06/05 09:30:57;;;;;;;8.43;2.40;;;;;;;;;;5025512;28;20117;-62
2023/06/05 09:33:23;;;;;;;3.25;2.08;;;;;;;;;;5031276;28;20485;-59
2023/06/05 09:36:01;;;;;;;3.13;2.28;;;;;;;;;;5031030;28;20036;-57
2023/06/05 09:38:27;;;;;;;13.43;2.45;;;;;;;;;;5043529;28;20495;-52
2023/06/05 09:40:52;;;;;;;5.60;2.13;;;;;;;;;;5027011;28;20021;-61
2023/06/05 09:43:22;;;;;;;8.32;2.92;;;;;;;;;;5030898;28;20622;-56
2023/06/05 09:45:47;;;;;;;8.55;2.47;;;;;;;;;;5036616;28;20099;-58
2023/06/05 09:48:14;;;;;;;6.83;2.40;;;;;;;;;;5027979;28;20478;-63
2023/06/05 09:50:39;;;;;;;5.47;2.20;;;;;;;;;;5033525;28;20073;-60
2023/06/05 09:53:05;;;;;;;6.37;2.23;;;;;;;;;;5028283;28;20025;-64
2023/06/05 09:55:31;;;;;;;4.07;2.22;;;;;;;;;;5025432;28;20087;-64
2023/06/05 09:57:57;;;;;;;7.38;2.33;;;;;;;;;;5039272;28;20436;-54
2023/06/05 10:00:22;;;;;;;5.70;2.47;;;;;;;;;;5025495;28;20116;-64
2023/06/05 10:02:49;;;;;;;8.47;2.60;;;;;;;;;;5030648;28;20104;-57
2023/06/05 10:05:15;;;;;;;8.02;3.17;;;;;;;;;;5031241;28;20258;-53
2023/06/05 10:07:41;;;;;;;5.63;2.40;;;;;;;;;;5022607;28;20041;-62
2023/06/05 10:10:08;;;;;;;6.88;2.40;;;;;;;;;;5025380;28;20018;-61
2023/06/05 10:12:34;;;;;;;5.45;2.55;;;;;;;;;;5025179;28;20022;-64
2023/06/05 10:15:01;;;;;;;10.55;2.90;;;;;;;;;;5025311;28;20029;-54
2023/06/05 10:17:27;;;;;;;7.80;2.47;;;;;;;;;;5025119;28;20038;-54
2023/06/05 10:19:52;;;;;;;3.97;2.20;;;;;;;;;;5034721;28;20032;-52
2023/06/05 10:22:21;;;;;;;4.65;2.60;;;;;;;;;;5024920;28;20017;-64
2023/06/05 10:24:48;;;;;;;11.02;3.55;;;;;;;;;;5022623;28;20461;-61
2023/06/05 10:27:25;;;;;;;4.07;2.30;;;;;;;;;;5014870;28;20440;-55
2023/06/05 10:29:54;;;;;;;8.00;2.80;;;;;;;;;;5036793;28;20044;-60
2023/06/05 10:32:22;;;;;;;8.55;2.50;;;;;;;;;;5022277;28;20026;-56
2023/06/05 10:34:52;;;;;;;5.32;2.60;;;;;;;;;;5022491;28;20025;-58
2023/06/05 10:37:36;;;;;;;6.22;2.30;;;;;;;;;;5025556;28;20069;-54
2023/06/05 10:40:01;;;;;;;3.45;2.42;;;;;;;;;;5022457;28;20404;-61
2023/06/05 10:42:28;;;;;;;4.40;2.40;;;;;;;;;;5003561;28;20444;-60
2023/06/05 10:44:53;;;;;;;3.28;2.30;;;;;;;;;;5016668;28;20151;-57
2023/06/05 10:47:34;;;;;;;10.73;2.50;;;;;;;;;;5016046;28;20071;-62
2023/06/05 10:50:19;;;;;;;3.25;2.25;;;;;;;;;;5018566;28;20026;-62
2023/06/05 10:52:44;;;;;;;4.68;2.33;;;;;;;;;;5028403;28;20025;-52
2023/06/05 10:55:15;;;;;;;6.47;2.20;;;;;;;;;;5040152;28;20100;-58
2023/06/05 10:57:56;;;;;;;19.42;3.38;;;;;;;;;;5026526;28;20062;-54
2023/06/05 11:00:22;;;;;;;3.25;2.35;;;;;;;;;;5016680;28;20017;-55
2023/06/05 11:02:47;;;;;;;6.53;2.42;;;;;;;;;;5023363;28;20031;-58
2023/06/05 11:05:13;;;;;;;3.92;2.60;;;;;;;;;;5023774;28;20079;-56
2023/06/05 11:07:39;;;;;;;2.83;2.00;;;;;;;;;;5023588;28;20061;-57
2023/06/05 11:10:09;;;;;;;3.15;2.30;;;;;;;;;;5024075;28;20116;-58
2023/06/05 11:12:40;;;;;;;12.00;3.00;;;;;;;;;;5023760;28;20482;-58
2023/06/05 11:15:06;;;;;;;5.60;2.38;;;;;;;;;;5019434;28;20052;-53
2023/06/05 11:17:32;;;;;;;5.68;1.98;;;;;;;;;;5025036;28;20029;-55
2023/06/05 11:19:58;;;;;;;6.20;2.65;;;;;;;;;;5023770;28;20031;-62
2023/06/05 11:22:25;;;;;;;11.00;2.45;;;;;;;;;;5022098;28;20135;-54
2023/06/05 11:25:10;;;;;;;4.82;2.30;;;;;;;;;;5020058;28;20080;-57
2023/06/05 11:27:42;;;;;;;5.75;2.40;;;;;;;;;;5023010;28;20026;-63
2023/06/05 11:30:17;;;;;;;6.22;2.53;;;;;;;;;;5021153;28;20225;-58
2023/06/05 11:32:43;;;;;;;18.40;3.15;;;;;;;;;;5011715;28;20029;-57
2023/06/05 11:35:09;;;;;;;4.47;2.40;;;;;;;;;;5031771;28;20056;-60
2023/06/05 11:37:34;;;;;;;6.53;2.15;;;;;;;;;;5018809;28;20461;-60
2023/06/05 11:40:09;;;;;;;7.00;2.17;;;;;;;;;;5022025;28;20053;-62
2023/06/05 11:42:34;;;;;;;12.05;2.42;;;;;;;;;;5017574;28;20030;-58
2023/06/05 11:45:00;;;;;;;9.98;3.35;;;;;;;;;;5028372;28;20018;-61
2023/06/05 11:47:29;;;;;;;4.85;2.17;;;;;;;;;;5021158;28;20103;-60
2023/06/05 11:50:06;;;;;;;6.07;3.58;;;;;;;;;;5023610;28;20298;-62
2023/06/05 11:52:32;;;;;;;8.43;2.75;;;;;;;;;;5031822;28;20025;-63
2023/06/05 11:55:12;;;;;;;12.18;7.93;;;;;;;;;;5040125;28;20026;-58
2023/06/05 11:57:41;;;;;;;360.77;336.77;;;;;;;;;;5031529;28;20040;-60
2023/06/05 12:00:07;;;;;;;633.50;587.65;;;;;;;;;;5013301;28;20084;-62
2023/06/05 12:02:33;;;;;;;138.48;129.55;;;;;;;;;;5024207;28;20048;-58
2023/06/05 12:04:59;;;;;;;244.93;230.50;;;;;;;;;;5032379;28;20027;-57
2023/06/05 12:07:28;;;;;;;411.90;387.15;;;;;;;;;;5023485;28;20021;-59
2023/06/05 12:09:53;;;;;;;707.53;655.90;;;;;;;;;;5028664;28;20333;-60
2023/06/05 12:12:19;;;;;;;98.22;78.88;;;;;;;;;;5025043;28;20657;-55
2023/06/05 12:14:45;;;;;;;43.13;17.13;;;;;;;;;;5020480;28;20060;-58
2023/06/05 12:17:11;;;;;;;82.68;32.88;;;;;;;;;;5021255;28;20053;-51
2023/06/05 12:19:36;;;;;;;6.15;2.42;;;;;;;;;;5020515;28;20055;-61
2023/06/05 12:22:03;;;;;;;5.43;2.55;;;;;;;;;;5028280;28;20056;-54
2023/06/05 12:24:28;;;;;;;4.05;2.22;;;;;;;;;;5015503;28;20441;-51
2023/06/05 12:26:55;;;;;;;5.20;2.55;;;;;;;;;;5026238;28;20088;-59
2023/06/05 12:29:22;;;;;;;6.57;2.30;;;;;;;;;;5014283;28;20021;-62
2023/06/05 12:31:47;;;;;;;9.55;2.67;;;;;;;;;;5024835;28;20021;-59
2023/06/05 12:34:15;;;;;;;6.93;2.67;;;;;;;;;;5025856;28;20013;-56
2023/06/05 12:36:41;;;;;;;4.70;2.78;;;;;;;;;;5042669;28;20766;-58
2023/06/05 12:39:06;;;;;;;8.82;2.42;;;;;;;;;;5025827;28;20438;-57
2023/06/05 12:41:33;;;;;;;6.80;2.70;;;;;;;;;;5041813;28;20049;-60
2023/06/05 12:44:00;;;;;;;4.50;2.85;;;;;;;;;;5030372;28;20033;-58
2023/06/05 12:46:25;;;;;;;3.22;2.38;;;;;;;;;;5032249;28;20035;-57
2023/06/05 12:48:50;;;;;;;5.23;2.37;;;;;;;;;;5022992;28;20120;-63
2023/06/05 12:51:16;;;;;;;10.05;2.63;;;;;;;;;;5037227;28;20832;-58
2023/06/05 12:53:41;;;;;;;5.25;2.33;;;;;;;;;;5032356;28;20033;-61
2023/06/05 12:56:06;;;;;;;4.00;2.33;;;;;;;;;;5032747;28;20344;-61
2023/06/05 12:58:32;;;;;;;3.83;2.60;;;;;;;;;;5052100;28;20041;-63
2023/06/05 13:00:57;;;;;;;9.70;2.60;;;;;;;;;;5018423;28;20281;-63
2023/06/05 13:03:23;;;;;;;5.35;2.72;;;;;;;;;;5018464;28;20084;-60
2023/06/05 13:05:48;;;;;;;6.28;2.67;;;;;;;;;;5019821;28;20377;-58
2023/06/05 13:08:13;;;;;;;9.50;2.53;;;;;;;;;;5021394;28;20109;-57
2023/06/05 13:10:40;;;;;;;18.93;2.87;;;;;;;;;;5018086;28;20352;-58
2023/06/05 13:13:05;;;;;;;7.38;2.42;;;;;;;;;;5017908;28;20250;-61
2023/06/05 13:15:31;;;;;;;5.35;2.38;;;;;;;;;;5013184;28;20569;-58
2023/06/05 13:17:56;;;;;;;7.13;2.95;;;;;;;;;;5015603;28;20108;-60
2023/06/05 13:20:21;;;;;;;13.80;3.33;;;;;;;;;;5016515;28;20017;-56
2023/06/05 13:22:47;;;;;;;7.35;2.42;;;;;;;;;;5021117;28;20489;-59
2023/06/05 13:25:12;;;;;;;9.40;2.83;;;;;;;;;;5005370;28;20407;-61
2023/06/05 13:27:38;;;;;;;4.70;2.38;;;;;;;;;;5015075;28;20278;-61
2023/06/05 13:30:03;;;;;;;4.07;2.20;;;;;;;;;;5005975;28;20398;-63
2023/06/05 13:32:29;;;;;;;4.75;2.38;;;;;;;;;;5030798;28;20048;-58
2023/06/05 13:34:55;;;;;;;7.05;2.55;;;;;;;;;;5017497;28;20437;-61
2023/06/05 13:37:20;;;;;;;4.83;2.10;;;;;;;;;;5013429;28;20415;-59
2023/06/05 13:39:46;;;;;;;4.43;2.60;;;;;;;;;;5020677;28;20451;-59
2023/06/05 13:42:11;;;;;;;5.28;2.65;;;;;;;;;;5028929;28;20532;-56
2023/06/05 13:44:37;;;;;;;6.85;2.83;;;;;;;;;;5031314;28;20076;-52
2023/06/05 13:47:03;;;;;;;5.28;2.28;;;;;;;;;;5018341;28;20725;-55
2023/06/05 13:49:28;;;;;;;4.88;2.35;;;;;;;;;;5017277;28;20397;-57
2023/06/05 13:51:54;;;;;;;5.28;2.60;;;;;;;;;;5029403;28;20037;-64
2023/06/05 13:54:19;;;;;;;10.00;2.50;;;;;;;;;;5015665;28;20033;-60
2023/06/05 13:56:44;;;;;;;8.55;2.40;;;;;;;;;;5028680;28;20364;-54
2023/06/05 13:59:10;;;;;;;6.20;2.67;;;;;;;;;;5026239;28;20021;-60
2023/06/05 14:01:35;;;;;;;3.80;2.27;;;;;;;;;;5029183;28;20745;-53
2023/06/05 14:04:00;;;;;;;7.53;2.30;;;;;;;;;;5021018;28;20349;-54
2023/06/05 14:06:25;;;;;;;6.03;2.50;;;;;;;;;;5017117;28;20351;-56
2023/06/05 14:08:51;;;;;;;4.60;2.10;;;;;;;;;;5031402;28;20282;-61
2023/06/05 14:11:16;;;;;;;10.43;2.93;;;;;;;;;;5032299;28;20650;-56
2023/06/05 14:13:41;;;;;;;7.67;2.30;;;;;;;;;;5040397;28;20246;-56
2023/06/05 14:16:10;;;;;;;10.63;2.80;;;;;;;;;;5020776;28;20276;-60
2023/06/05 14:18:36;;;;;;;5.22;2.33;;;;;;;;;;5025565;28;20033;-63
2023/06/05 14:21:01;;;;;;;13.70;2.65;;;;;;;;;;5039176;28;20444;-61
2023/06/05 14:23:26;;;;;;;2.93;2.30;;;;;;;;;;5024888;28;20071;-59
2023/06/05 14:25:52;;;;;;;7.40;2.37;;;;;;;;;;5024779;28;20730;-53
2023/06/05 14:28:19;;;;;;;3.85;2.20;;;;;;;;;;5024686;28;20270;-59
2023/06/05 14:30:44;;;;;;;4.72;2.20;;;;;;;;;;5024588;28;20054;-58
2023/06/05 14:33:10;;;;;;;4.25;2.35;;;;;;;;;;5024728;28;20404;-52
2023/06/05 14:35:35;;;;;;;3.08;2.33;;;;;;;;;;5024807;28;20131;-62